Time;durP1;ratioP1;P1;durP2;ratioP2;P2;SDS_P1;SDS_P2;PMS_P1;PMS_P2;Temp;Humidity;BMP_temperature;BMP_pressure;BME280_temperature;BME280_humidity;BME280_pressure;Samples;Min_cycle;Max_cycle;Signal;HPM_P1;HPM_P2
2021/06/06 00:00:55;;;;;;;0.80;0.55;;;25.40;49.80;;;;;;5056849;28;20098;-61
2021/06/06 00:03:29;;;;;;;1.17;0.63;;;25.40;49.80;;;;;;5057027;28;20203;-60
2021/06/06 00:06:04;;;;;;;0.43;0.43;;;25.40;49.80;;;;;;5068154;28;20115;-61
2021/06/06 00:08:30;;;;;;;0.50;0.50;;;25.40;49.70;;;;;;5064754;28;20042;-61
2021/06/06 00:11:06;;;;;;;0.70;0.50;;;25.40;49.80;;;;;;5061711;28;20037;-61
2021/06/06 00:13:32;;;;;;;1.08;0.50;;;25.40;49.70;;;;;;5056571;28;20190;-60
2021/06/06 00:15:57;;;;;;;0.85;0.50;;;25.40;49.80;;;;;;5049894;28;20091;-61
2021/06/06 00:18:24;;;;;;;0.50;0.40;;;25.40;49.80;;;;;;5049742;28;20087;-60
2021/06/06 00:20:50;;;;;;;0.75;0.60;;;25.40;50.30;;;;;;5050061;28;20040;-61
2021/06/06 00:23:15;;;;;;;0.70;0.70;;;25.40;49.80;;;;;;5050027;28;20464;-60
2021/06/06 00:25:41;;;;;;;0.55;0.50;;;25.40;49.70;;;;;;5057628;28;20028;-61
2021/06/06 00:28:07;;;;;;;0.90;0.50;;;25.30;49.70;;;;;;5067548;28;20032;-61
2021/06/06 00:30:34;;;;;;;0.75;0.60;;;25.40;49.70;;;;;;5055641;28;20715;-61
2021/06/06 00:32:59;;;;;;;0.40;0.40;;;25.30;49.70;;;;;;5055479;28;20044;-60
2021/06/06 00:35:26;;;;;;;0.85;0.57;;;25.30;49.70;;;;;;5056375;28;20024;-61
2021/06/06 00:37:52;;;;;;;0.95;0.57;;;25.40;49.70;;;;;;5064731;28;20402;-60
2021/06/06 00:40:22;;;;;;;0.60;0.60;;;25.30;49.70;;;;;;5049479;28;20032;-60
2021/06/06 00:42:48;;;;;;;0.75;0.50;;;25.30;49.70;;;;;;5060031;28;20040;-61
2021/06/06 00:45:16;;;;;;;0.90;0.60;;;25.30;49.70;;;;;;5051353;28;20033;-60
2021/06/06 00:47:42;;;;;;;0.50;0.50;;;25.30;49.70;;;;;;5062646;28;20048;-61
2021/06/06 00:50:13;;;;;;;0.52;0.52;;;25.30;49.70;;;;;;5066407;28;20446;-59
2021/06/06 00:52:39;;;;;;;0.90;0.60;;;25.30;49.70;;;;;;5068445;28;20032;-61
2021/06/06 00:55:08;;;;;;;0.57;0.50;;;25.30;49.60;;;;;;5067114;28;20032;-61
2021/06/06 00:57:35;;;;;;;0.50;0.50;;;25.30;49.70;;;;;;5050885;28;20062;-60
2021/06/06 01:00:13;;;;;;;0.85;0.50;;;25.30;49.70;;;;;;5066982;28;20505;-59
2021/06/06 01:02:40;;;;;;;0.50;0.50;;;25.30;49.70;;;;;;5064479;28;20115;-60
2021/06/06 01:05:16;;;;;;;0.50;0.50;;;25.30;49.60;;;;;;5069000;28;20868;-61
2021/06/06 01:07:42;;;;;;;0.55;0.45;;;25.30;49.60;;;;;;5062772;28;20823;-60
2021/06/06 01:10:08;;;;;;;0.55;0.52;;;25.30;49.60;;;;;;5051715;28;20036;-60
2021/06/06 01:12:37;;;;;;;0.95;0.70;;;25.30;49.60;;;;;;5067995;28;20035;-59
2021/06/06 01:15:16;;;;;;;1.00;0.60;;;25.30;49.60;;;;;;5055290;28;20021;-60
2021/06/06 01:18:20;;;;;;;0.50;0.50;;;25.20;49.50;;;;;;5050775;28;20032;-61
2021/06/06 01:20:57;;;;;;;0.88;0.57;;;25.20;49.50;;;;;;5031339;28;20524;-59
2021/06/06 01:23:48;;;;;;;0.70;0.50;;;25.30;49.60;;;;;;5050429;28;20039;-60
2021/06/06 01:26:25;;;;;;;0.63;0.60;;;25.30;49.60;;;;;;5055482;28;20183;-61
2021/06/06 01:29:26;;;;;;;0.50;0.50;;;25.30;49.60;;;;;;5050049;28;20479;-61
2021/06/06 01:31:56;;;;;;;0.50;0.40;;;25.20;49.50;;;;;;5023076;28;20239;-60
2021/06/06 01:34:25;;;;;;;0.82;0.60;;;25.30;49.60;;;;;;5050096;28;20029;-61
2021/06/06 01:37:11;;;;;;;;;;;25.20;49.60;;;;;;5059067;28;20025;-60
2021/06/06 01:39:41;;;;;;;0.52;0.50;;;25.20;49.50;;;;;;5053881;28;19917;-61
2021/06/06 01:42:29;;;;;;;0.50;0.50;;;25.20;49.50;;;;;;5048325;28;20036;-60
2021/06/06 01:44:59;;;;;;;1.00;0.60;;;25.20;49.50;;;;;;5055184;28;20037;-61
2021/06/06 01:47:27;;;;;;;0.80;0.60;;;25.20;49.50;;;;;;5054187;28;20016;-60
2021/06/06 01:49:58;;;;;;;0.43;0.43;;;25.20;49.50;;;;;;5051482;28;20041;-61
2021/06/06 01:52:29;;;;;;;1.05;0.60;;;25.20;49.50;;;;;;5050452;28;20029;-61
2021/06/06 01:54:56;;;;;;;0.60;0.50;;;25.20;49.50;;;;;;5060786;28;20032;-60
2021/06/06 01:57:24;;;;;;;0.50;0.50;;;25.20;49.50;;;;;;5060533;28;20027;-60
2021/06/06 01:59:53;;;;;;;0.60;0.60;;;25.20;49.50;;;;;;5062521;28;20039;-60
2021/06/06 02:02:20;;;;;;;0.93;0.60;;;25.10;49.50;;;;;;5051505;28;20052;-61
2021/06/06 02:04:47;;;;;;;1.48;0.70;;;25.20;50.10;;;;;;5047883;28;20219;-60
2021/06/06 02:07:12;;;;;;;0.63;0.50;;;25.10;49.40;;;;;;5066809;28;20489;-61
2021/06/06 02:09:47;;;;;;;0.70;0.43;;;25.10;49.50;;;;;;5068029;28;20020;-60
2021/06/06 02:12:12;;;;;;;1.02;0.60;;;25.20;49.50;;;;;;5054652;28;20451;-60
2021/06/06 02:14:41;;;;;;;1.17;0.60;;;25.20;49.50;;;;;;5056018;28;20035;-60
2021/06/06 02:17:22;;;;;;;0.50;0.50;;;25.10;50.00;;;;;;5057387;28;20062;-60
2021/06/06 02:19:47;;;;;;;0.50;0.50;;;25.10;49.40;;;;;;5055215;28;20032;-61
2021/06/06 02:22:15;;;;;;;0.60;0.50;;;25.10;49.40;;;;;;5066561;28;20086;-59
2021/06/06 02:24:42;;;;;;;0.98;0.57;;;25.10;49.40;;;;;;5064059;28;20483;-60
2021/06/06 02:27:16;;;;;;;0.60;0.60;;;25.10;49.40;;;;;;5052395;28;20033;-60
2021/06/06 02:29:50;;;;;;;0.60;0.60;;;25.10;49.40;;;;;;5053620;28;20120;-61
2021/06/06 02:32:31;;;;;;;0.82;0.60;;;25.10;49.40;;;;;;5052817;28;20053;-60
2021/06/06 02:35:03;;;;;;;0.40;0.40;;;25.10;49.40;;;;;;5050435;28;20033;-60
2021/06/06 02:37:50;;;;;;;0.80;0.60;;;25.10;49.40;;;;;;5060050;28;20108;-61
2021/06/06 02:40:47;;;;;;;0.70;0.52;;;25.10;49.40;;;;;;5055846;28;20123;-60
2021/06/06 02:43:21;;;;;;;0.70;0.52;;;25.10;49.40;;;;;;5052476;28;20028;-61
2021/06/06 02:45:48;;;;;;;0.60;0.50;;;25.10;49.40;;;;;;5048465;28;20037;-61
2021/06/06 02:48:33;;;;;;;0.95;0.60;;;25.10;49.50;;;;;;5050958;28;20085;-61
2021/06/06 02:51:03;;;;;;;0.47;0.40;;;25.10;49.50;;;;;;5063175;28;20032;-61
2021/06/06 02:53:32;;;;;;;0.93;0.60;;;25.10;49.50;;;;;;5064791;28;20044;-61
2021/06/06 02:56:05;;;;;;;;;;;25.10;49.40;;;;;;5059733;28;20059;-60
2021/06/06 02:59:18;;;;;;;1.42;0.60;;;25.10;49.40;;;;;;5055943;28;19909;-60
2021/06/06 03:01:49;;;;;;;0.50;0.50;;;25.10;49.40;;;;;;5016506;28;20039;-60
2021/06/06 03:04:20;;;;;;;0.43;0.43;;;25.10;49.40;;;;;;5014864;28;20036;-61
2021/06/06 03:06:55;;;;;;;0.65;0.57;;;25.10;49.50;;;;;;5039003;28;20071;-60
2021/06/06 03:09:21;;;;;;;0.63;0.50;;;25.00;49.40;;;;;;5054417;28;20028;-60
2021/06/06 03:11:51;;;;;;;0.45;0.45;;;25.10;49.50;;;;;;5061590;28;20411;-60
2021/06/06 03:14:21;;;;;;;0.45;0.45;;;25.10;49.40;;;;;;5047823;28;20021;-60
2021/06/06 03:17:12;;;;;;;0.70;0.50;;;25.00;49.40;;;;;;5052377;28;20045;-60
2021/06/06 03:19:48;;;;;;;0.75;0.65;;;25.00;49.40;;;;;;5060850;28;20037;-60
2021/06/06 03:22:31;;;;;;;1.25;0.60;;;25.00;49.40;;;;;;5060121;28;20032;-60
2021/06/06 03:25:01;;;;;;;0.68;0.50;;;25.00;49.40;;;;;;5060759;28;20028;-60
2021/06/06 03:27:42;;;;;;;0.50;0.50;;;25.00;49.40;;;;;;5065480;28;20102;-60
2021/06/06 03:30:25;;;;;;;0.43;0.40;;;25.00;49.30;;;;;;5046158;28;20108;-60
2021/06/06 03:32:53;;;;;;;0.75;0.60;;;25.00;49.40;;;;;;5065496;28;20064;-60
2021/06/06 03:35:19;;;;;;;0.68;0.60;;;25.00;49.30;;;;;;5069843;28;20085;-59
2021/06/06 03:37:45;;;;;;;0.40;0.40;;;25.00;49.40;;;;;;5070179;28;20025;-61
2021/06/06 03:40:11;;;;;;;0.50;0.50;;;25.00;49.30;;;;;;5058126;28;20036;-61
2021/06/06 03:42:38;;;;;;;0.77;0.70;;;25.00;49.30;;;;;;5060580;28;20479;-60
2021/06/06 03:45:06;;;;;;;0.55;0.55;;;25.00;49.30;;;;;;5070576;28;20024;-60
2021/06/06 03:47:32;;;;;;;0.63;0.63;;;25.00;49.40;;;;;;5067667;28;20051;-60
2021/06/06 03:49:58;;;;;;;0.60;0.60;;;25.00;49.30;;;;;;5068361;28;20029;-60
2021/06/06 03:52:23;;;;;;;1.10;0.60;;;24.90;49.30;;;;;;5080114;28;20090;-60
2021/06/06 03:54:51;;;;;;;0.80;0.60;;;25.00;49.30;;;;;;5069441;28;20020;-61
2021/06/06 03:57:17;;;;;;;0.50;0.50;;;25.00;49.40;;;;;;5051845;28;20049;-61
2021/06/06 03:59:43;;;;;;;0.40;0.40;;;25.00;49.30;;;;;;5051235;28;20071;-60
2021/06/06 04:02:08;;;;;;;0.50;0.50;;;25.00;49.30;;;;;;5061539;28;20355;-60
2021/06/06 04:04:34;;;;;;;0.45;0.40;;;25.00;49.30;;;;;;5070546;28;20036;-61
2021/06/06 04:06:59;;;;;;;0.70;0.50;;;25.00;49.40;;;;;;5069369;28;20174;-60
2021/06/06 04:09:25;;;;;;;0.47;0.47;;;25.00;49.30;;;;;;5070572;28;20032;-59
2021/06/06 04:11:51;;;;;;;0.60;0.50;;;24.90;49.30;;;;;;5068755;28;20423;-60
2021/06/06 04:14:16;;;;;;;1.13;0.63;;;24.90;49.30;;;;;;5058846;28;20033;-60
2021/06/06 04:16:42;;;;;;;0.70;0.60;;;24.90;49.30;;;;;;5048194;28;20033;-61
2021/06/06 04:19:07;;;;;;;0.50;0.50;;;24.90;49.30;;;;;;5056158;28;20427;-60
2021/06/06 04:21:34;;;;;;;1.00;0.60;;;24.90;49.30;;;;;;5050174;28;20029;-60
2021/06/06 04:24:00;;;;;;;0.60;0.60;;;24.90;49.30;;;;;;5065403;28;20439;-61
2021/06/06 04:26:26;;;;;;;0.50;0.50;;;24.90;49.30;;;;;;5065796;28;20116;-61
2021/06/06 04:28:53;;;;;;;0.60;0.60;;;24.90;49.30;;;;;;5052686;28;20028;-60
2021/06/06 04:31:19;;;;;;;0.93;0.50;;;24.90;49.30;;;;;;5050781;28;20109;-61
2021/06/06 04:33:45;;;;;;;0.60;0.57;;;24.90;49.30;;;;;;5068752;28;20340;-61
2021/06/06 04:36:11;;;;;;;0.63;0.60;;;24.90;49.30;;;;;;5052106;28;20021;-60
2021/06/06 04:38:37;;;;;;;0.60;0.60;;;24.90;49.30;;;;;;5059268;28;20093;-61
2021/06/06 04:41:09;;;;;;;0.90;0.50;;;24.90;49.30;;;;;;5068431;28;20081;-60
2021/06/06 04:43:36;;;;;;;0.60;0.60;;;24.90;49.30;;;;;;5068048;28;20036;-61
2021/06/06 04:46:02;;;;;;;0.40;0.40;;;24.90;49.30;;;;;;5067271;28;20058;-60
2021/06/06 04:48:34;;;;;;;0.50;0.50;;;24.90;49.80;;;;;;5067308;28;20556;-60
2021/06/06 04:51:05;;;;;;;0.80;0.60;;;24.90;49.30;;;;;;5066882;28;20032;-60
2021/06/06 04:53:31;;;;;;;0.60;0.45;;;24.90;49.30;;;;;;5057641;28;20444;-60
2021/06/06 04:55:58;;;;;;;0.70;0.50;;;24.80;49.20;;;;;;5056540;28;20081;-60
2021/06/06 04:58:26;;;;;;;0.60;0.57;;;24.90;49.30;;;;;;5058378;28;20056;-61
2021/06/06 05:00:52;;;;;;;0.50;0.50;;;24.80;49.20;;;;;;5047460;28;20140;-61
2021/06/06 05:03:19;;;;;;;0.55;0.50;;;24.90;49.30;;;;;;5066724;28;20024;-60
2021/06/06 05:05:46;;;;;;;0.50;0.50;;;24.90;49.30;;;;;;5051534;28;20033;-59
2021/06/06 05:08:16;;;;;;;0.52;0.50;;;24.80;49.30;;;;;;5049592;28;20048;-60
2021/06/06 05:10:44;;;;;;;0.93;0.68;;;24.80;49.30;;;;;;5061144;28;20028;-61
2021/06/06 05:13:10;;;;;;;0.65;0.60;;;24.80;49.30;;;;;;5067735;28;20496;-60
2021/06/06 05:15:37;;;;;;;0.60;0.60;;;24.80;49.80;;;;;;5060561;28;20036;-60
2021/06/06 05:18:03;;;;;;;0.52;0.50;;;24.80;49.20;;;;;;5058979;28;20112;-61
2021/06/06 05:20:33;;;;;;;0.70;0.60;;;24.80;49.20;;;;;;5063309;28;20039;-61
2021/06/06 05:22:58;;;;;;;;;;;24.80;49.20;;;;;;5067722;28;20050;-61
2021/06/06 05:25:24;;;;;;;0.70;0.60;;;24.80;49.30;;;;;;5053523;28;19921;-60
2021/06/06 05:27:50;;;;;;;0.88;0.70;;;24.80;49.20;;;;;;5063942;28;20127;-60
2021/06/06 05:30:21;;;;;;;1.15;0.60;;;24.80;49.20;;;;;;5048266;28;20112;-62
2021/06/06 05:32:48;;;;;;;0.50;0.50;;;24.80;49.20;;;;;;5063750;28;20032;-62
2021/06/06 05:35:14;;;;;;;0.57;0.50;;;24.80;49.20;;;;;;5062867;28;20036;-61
2021/06/06 05:37:40;;;;;;;0.60;0.50;;;24.80;49.30;;;;;;5058595;28;20025;-61
2021/06/06 05:40:06;;;;;;;0.95;0.70;;;24.80;49.30;;;;;;5054425;28;20056;-61
2021/06/06 05:42:32;;;;;;;0.60;0.60;;;24.80;49.20;;;;;;5066374;28;20044;-61
2021/06/06 05:44:57;;;;;;;1.00;0.57;;;24.80;49.30;;;;;;5067951;28;20528;-61
2021/06/06 05:47:23;;;;;;;0.50;0.50;;;24.80;49.20;;;;;;5064403;28;20032;-61
2021/06/06 05:49:49;;;;;;;0.55;0.55;;;24.80;49.20;;;;;;5063159;28;20383;-61
2021/06/06 05:52:14;;;;;;;0.68;0.68;;;24.80;49.30;;;;;;5052859;28;20041;-61
2021/06/06 05:54:40;;;;;;;0.80;0.60;;;24.80;49.30;;;;;;5065490;28;20111;-61
2021/06/06 05:57:06;;;;;;;0.93;0.60;;;24.80;49.30;;;;;;5057523;28;20403;-62
2021/06/06 05:59:32;;;;;;;0.82;0.65;;;24.80;49.30;;;;;;5066454;28;20028;-61
2021/06/06 06:01:58;;;;;;;0.57;0.57;;;24.80;49.30;;;;;;5046792;28;20376;-61
2021/06/06 06:04:24;;;;;;;0.50;0.50;;;24.80;49.30;;;;;;5048903;28;20025;-61
2021/06/06 06:06:49;;;;;;;0.52;0.52;;;24.80;49.30;;;;;;5051251;28;20025;-61
2021/06/06 06:09:15;;;;;;;0.90;0.60;;;24.80;49.30;;;;;;5048041;28;20344;-61
2021/06/06 06:11:41;;;;;;;0.60;0.60;;;24.80;49.30;;;;;;5048270;28;20102;-62
2021/06/06 06:14:06;;;;;;;0.50;0.50;;;24.80;49.30;;;;;;5054787;28;20090;-61
2021/06/06 06:16:36;;;;;;;0.50;0.50;;;24.80;49.30;;;;;;5062216;28;20102;-62
2021/06/06 06:19:05;;;;;;;1.52;0.60;;;24.80;49.30;;;;;;5054219;28;20906;-62
2021/06/06 06:21:33;;;;;;;0.40;0.40;;;24.80;49.30;;;;;;5055226;28;20098;-63
2021/06/06 06:23:59;;;;;;;0.50;0.50;;;24.80;49.30;;;;;;5047358;28;20041;-62
2021/06/06 06:26:25;;;;;;;0.98;0.63;;;24.80;49.30;;;;;;5052774;28;20021;-62
2021/06/06 06:28:52;;;;;;;0.70;0.60;;;24.80;49.30;;;;;;5050883;28;20059;-63
2021/06/06 06:31:18;;;;;;;0.63;0.50;;;24.70;49.20;;;;;;5060871;28;20412;-63
2021/06/06 06:33:44;;;;;;;0.60;0.60;;;24.70;49.30;;;;;;5049656;28;20029;-61
2021/06/06 06:36:12;;;;;;;0.68;0.50;;;24.70;49.20;;;;;;5054700;28;20471;-61
2021/06/06 06:38:38;;;;;;;0.65;0.60;;;24.70;49.20;;;;;;5053142;28;20044;-63
2021/06/06 06:41:05;;;;;;;0.82;0.70;;;24.70;49.30;;;;;;5065937;28;20526;-62
2021/06/06 06:43:31;;;;;;;0.57;0.57;;;24.70;49.20;;;;;;5058958;28;20028;-63
2021/06/06 06:45:56;;;;;;;0.60;0.50;;;24.70;49.20;;;;;;5056929;28;20495;-62
2021/06/06 06:48:25;;;;;;;0.60;0.60;;;24.70;49.20;;;;;;5055404;28;20028;-63
2021/06/06 06:50:51;;;;;;;0.65;0.60;;;24.70;49.30;;;;;;5057091;28;20144;-62
2021/06/06 06:53:19;;;;;;;0.85;0.60;;;24.70;49.20;;;;;;5059619;28;20031;-62
2021/06/06 06:55:44;;;;;;;0.50;0.50;;;24.70;49.30;;;;;;5062286;28;20055;-64
2021/06/06 06:58:10;;;;;;;0.50;0.50;;;24.70;49.30;;;;;;5058824;28;20067;-62
2021/06/06 07:00:39;;;;;;;0.68;0.60;;;24.70;49.30;;;;;;5056973;28;20040;-61
2021/06/06 07:03:07;;;;;;;0.60;0.50;;;24.70;49.30;;;;;;5051764;28;20040;-60
2021/06/06 07:05:33;;;;;;;0.90;0.70;;;24.70;49.30;;;;;;5063330;28;20048;-61
2021/06/06 07:07:59;;;;;;;0.60;0.60;;;24.70;49.30;;;;;;5060870;28;20583;-60
2021/06/06 07:10:28;;;;;;;0.50;0.50;;;24.70;49.30;;;;;;5048639;28;20048;-62
2021/06/06 07:12:53;;;;;;;0.85;0.50;;;24.70;49.30;;;;;;5060890;28;20037;-62
2021/06/06 07:15:19;;;;;;;0.73;0.65;;;24.70;49.30;;;;;;5063646;28;20017;-63
2021/06/06 07:17:45;;;;;;;0.40;0.40;;;24.70;49.30;;;;;;5057073;28;20075;-63
2021/06/06 07:20:14;;;;;;;0.50;0.50;;;24.70;49.30;;;;;;5055641;28;20094;-65
2021/06/06 07:22:40;;;;;;;0.65;0.60;;;24.70;49.80;;;;;;5054613;28;20459;-67
2021/06/06 07:25:08;;;;;;;0.75;0.60;;;24.70;49.30;;;;;;5056323;28;20032;-67
2021/06/06 07:27:37;;;;;;;0.60;0.60;;;24.70;49.30;;;;;;5056050;28;20795;-64
2021/06/06 07:30:08;;;;;;;0.73;0.60;;;24.60;49.30;;;;;;5052821;28;20035;-66
2021/06/06 07:32:35;;;;;;;0.73;0.60;;;24.70;49.30;;;;;;5056455;28;20038;-67
2021/06/06 07:35:02;;;;;;;0.50;0.50;;;24.70;49.40;;;;;;5042781;28;20029;-66
2021/06/06 07:37:28;;;;;;;0.60;0.60;;;24.70;49.40;;;;;;5048096;28;20021;-67
2021/06/06 07:39:53;;;;;;;0.55;0.50;;;24.70;49.30;;;;;;5044394;28;20464;-67
2021/06/06 07:42:19;;;;;;;0.57;0.50;;;24.60;49.30;;;;;;5045623;28;20403;-66
2021/06/06 07:44:45;;;;;;;0.55;0.55;;;24.70;49.40;;;;;;5057873;28;20102;-67
2021/06/06 07:47:10;;;;;;;0.95;0.60;;;24.60;49.30;;;;;;5053451;28;20128;-67
2021/06/06 07:49:37;;;;;;;0.50;0.50;;;24.60;49.30;;;;;;5057416;28;20083;-66
2021/06/06 07:52:04;;;;;;;0.95;0.60;;;24.60;49.30;;;;;;5046897;28;20367;-66
2021/06/06 07:54:30;;;;;;;1.25;0.70;;;24.60;49.40;;;;;;5049139;28;20041;-65
2021/06/06 07:56:57;;;;;;;0.50;0.50;;;24.60;49.40;;;;;;5054120;28;20106;-66
2021/06/06 07:59:24;;;;;;;0.57;0.57;;;24.60;49.40;;;;;;5046784;28;20040;-65
2021/06/06 08:01:50;;;;;;;0.60;0.60;;;24.60;49.30;;;;;;5041165;28;20029;-65
2021/06/06 08:04:15;;;;;;;0.70;0.60;;;24.60;49.30;;;;;;5060252;28;20052;-65
2021/06/06 08:06:41;;;;;;;0.90;0.55;;;24.60;49.30;;;;;;5062961;28;20244;-66
2021/06/06 08:09:07;;;;;;;0.52;0.50;;;24.60;49.30;;;;;;5050660;28;20577;-65
2021/06/06 08:11:35;;;;;;;0.52;0.52;;;24.60;49.30;;;;;;5047628;28;20044;-65
2021/06/06 08:14:00;;;;;;;0.77;0.60;;;24.60;49.30;;;;;;5049980;28;20128;-66
2021/06/06 08:16:26;;;;;;;1.38;0.50;;;24.60;49.80;;;;;;5040287;28;20017;-65
2021/06/06 08:18:52;;;;;;;1.67;0.60;;;24.60;49.30;;;;;;5052952;28;20035;-65
2021/06/06 08:21:24;;;;;;;0.60;0.60;;;24.60;49.30;;;;;;5057239;28;20115;-65
2021/06/06 08:23:50;;;;;;;0.50;0.50;;;24.60;49.30;;;;;;5055535;28;20041;-65
2021/06/06 08:26:18;;;;;;;0.60;0.60;;;24.60;49.30;;;;;;5065718;28;20371;-66
2021/06/06 08:28:45;;;;;;;0.50;0.50;;;24.60;49.30;;;;;;5062708;28;20029;-65
2021/06/06 08:31:15;;;;;;;0.70;0.60;;;24.60;49.30;;;;;;5058233;28;20044;-66
2021/06/06 08:33:41;;;;;;;0.70;0.50;;;24.60;49.40;;;;;;5049323;28;20203;-65
2021/06/06 08:36:24;;;;;;;0.82;0.60;;;24.60;49.30;;;;;;5055397;28;20245;-65
2021/06/06 08:38:52;;;;;;;0.50;0.50;;;24.60;49.50;;;;;;5060716;28;20100;-66
2021/06/06 08:41:20;;;;;;;0.55;0.50;;;24.60;49.50;;;;;;5059552;28;20094;-66
2021/06/06 08:43:49;;;;;;;0.70;0.60;;;24.60;49.50;;;;;;5045265;28;20364;-66
2021/06/06 08:46:17;;;;;;;0.60;0.60;;;24.60;49.60;;;;;;5045267;28;20871;-64
2021/06/06 08:48:43;;;;;;;0.60;0.60;;;24.60;49.70;;;;;;5057765;28;20501;-65
2021/06/06 08:51:45;;;;;;;0.63;0.63;;;24.60;49.70;;;;;;5057987;28;20476;-65
2021/06/06 08:54:52;;;;;;;0.60;0.60;;;24.60;49.80;;;;;;5053239;28;20032;-66
2021/06/06 08:57:20;;;;;;;0.77;0.60;;;24.60;49.90;;;;;;5029090;28;20033;-66
2021/06/06 08:59:53;;;;;;;0.77;0.60;;;24.60;49.90;;;;;;5052725;28;20029;-65
2021/06/06 09:02:31;;;;;;;0.73;0.60;;;24.60;50.00;;;;;;5053454;28;20056;-64
2021/06/06 09:04:57;;;;;;;0.70;0.70;;;24.60;50.00;;;;;;5046473;28;20124;-64
2021/06/06 09:07:28;;;;;;;0.50;0.50;;;24.60;50.00;;;;;;5061390;28;20115;-63
2021/06/06 09:09:59;;;;;;;0.45;0.45;;;24.60;50.10;;;;;;5047430;28;20095;-63
2021/06/06 09:12:25;;;;;;;1.05;0.65;;;24.60;50.10;;;;;;5045851;28;20791;-63
2021/06/06 09:14:54;;;;;;;0.63;0.60;;;24.60;50.20;;;;;;5061491;28;20020;-63
2021/06/06 09:17:43;;;;;;;1.13;0.70;;;24.60;50.10;;;;;;5063206;28;20040;-62
2021/06/06 09:20:30;;;;;;;1.00;0.60;;;24.60;50.20;;;;;;5054503;28;20106;-62
2021/06/06 09:23:27;;;;;;;0.63;0.60;;;24.60;50.20;;;;;;5049504;28;20132;-62
2021/06/06 09:26:05;;;;;;;0.60;0.60;;;24.60;50.20;;;;;;5043935;28;20045;-63
2021/06/06 09:28:33;;;;;;;0.90;0.70;;;24.60;50.20;;;;;;5046947;28;20115;-64
2021/06/06 09:31:10;;;;;;;2.10;0.93;;;24.60;50.70;;;;;;5048060;28;20036;-65
2021/06/06 09:33:46;;;;;;;0.57;0.57;;;24.60;50.20;;;;;;5057782;28;20028;-64
2021/06/06 09:36:20;;;;;;;1.13;0.60;;;24.60;50.20;;;;;;5057053;28;20029;-65
2021/06/06 09:38:48;;;;;;;0.60;0.60;;;24.60;50.30;;;;;;5059812;28;20024;-64
2021/06/06 09:41:34;;;;;;;0.50;0.50;;;24.60;50.20;;;;;;5056906;28;20136;-64
2021/06/06 09:44:14;;;;;;;0.77;0.60;;;24.60;50.20;;;;;;5054443;28;20028;-65
2021/06/06 09:46:46;;;;;;;1.05;0.80;;;24.60;50.30;;;;;;5057605;28;20035;-64
2021/06/06 09:49:22;;;;;;;0.80;0.60;;;24.50;50.20;;;;;;5063212;28;20037;-64
2021/06/06 09:51:48;;;;;;;1.20;0.68;;;24.60;50.30;;;;;;5056051;28;20550;-64
2021/06/06 09:54:17;;;;;;;0.65;0.60;;;24.60;50.30;;;;;;5055973;28;20082;-64
2021/06/06 09:56:51;;;;;;;0.85;0.57;;;24.60;50.30;;;;;;5060016;28;20024;-64
2021/06/06 09:59:24;;;;;;;0.80;0.60;;;24.60;50.40;;;;;;5058484;28;21097;-64
2021/06/06 10:02:00;;;;;;;1.35;0.70;;;24.50;50.30;;;;;;5045195;28;20298;-64
2021/06/06 10:04:30;;;;;;;0.98;0.60;;;24.50;50.30;;;;;;5066525;28;20044;-63
2021/06/06 10:07:12;;;;;;;1.70;0.60;;;24.60;50.30;;;;;;5062791;28;20116;-61
2021/06/06 10:09:53;;;;;;;1.30;0.80;;;24.60;50.40;;;;;;5055824;28;20104;-62
2021/06/06 10:12:28;;;;;;;0.80;0.70;;;24.50;50.40;;;;;;5058449;28;20040;-61
2021/06/06 10:15:05;;;;;;;1.05;0.60;;;24.60;50.50;;;;;;5052927;28;20031;-61
2021/06/06 10:17:49;;;;;;;1.52;0.60;;;24.50;50.40;;;;;;5046349;28;20531;-61
2021/06/06 10:20:23;;;;;;;0.73;0.68;;;24.50;50.40;;;;;;5057331;28;20089;-61
2021/06/06 10:22:56;;;;;;;0.68;0.60;;;24.60;50.40;;;;;;5063266;28;20120;-62
2021/06/06 10:25:27;;;;;;;0.88;0.60;;;24.60;50.40;;;;;;5054383;28;20547;-61
2021/06/06 10:27:59;;;;;;;0.45;0.45;;;24.60;50.50;;;;;;5048800;28;20348;-61
2021/06/06 10:30:42;;;;;;;0.95;0.60;;;24.60;50.50;;;;;;5065866;28;20042;-61
2021/06/06 10:33:29;;;;;;;0.77;0.60;;;24.60;50.60;;;;;;5049980;28;20033;-60
2021/06/06 10:35:57;;;;;;;1.08;0.60;;;24.60;50.60;;;;;;5046829;28;20051;-61
2021/06/06 10:38:24;;;;;;;1.30;0.80;;;24.60;50.60;;;;;;5062456;28;20219;-61
2021/06/06 10:40:53;;;;;;;0.75;0.65;;;24.50;50.60;;;;;;5057600;28;20439;-60
2021/06/06 10:44:11;;;;;;;0.77;0.60;;;24.50;50.60;;;;;;5047642;28;20397;-61
2021/06/06 10:46:47;;;;;;;0.52;0.50;;;24.60;50.70;;;;;;5031886;28;20105;-61
2021/06/06 10:49:54;;;;;;;0.90;0.70;;;24.60;51.20;;;;;;5048077;28;20028;-61
2021/06/06 10:52:24;;;;;;;1.42;0.57;;;24.60;50.80;;;;;;5055298;28;20131;-61
2021/06/06 10:54:54;;;;;;;0.80;0.63;;;24.50;50.70;;;;;;5057642;28;20049;-62
2021/06/06 10:57:26;;;;;;;0.95;0.63;;;24.50;50.70;;;;;;5058301;28;20016;-61
2021/06/06 11:00:32;;;;;;;0.63;0.60;;;24.60;50.80;;;;;;5055139;28;20018;-61
2021/06/06 11:03:06;;;;;;;1.67;0.63;;;24.50;50.70;;;;;;5049948;28;20830;-61
2021/06/06 11:05:44;;;;;;;0.63;0.63;;;24.60;50.80;;;;;;5058942;28;20037;-61
2021/06/06 11:08:26;;;;;;;0.50;0.50;;;24.50;50.70;;;;;;5062728;28;20040;-61
2021/06/06 11:10:53;;;;;;;0.50;0.50;;;24.60;50.80;;;;;;5056923;28;20101;-61
2021/06/06 11:13:51;;;;;;;0.70;0.60;;;24.60;50.70;;;;;;5060378;28;20040;-62
2021/06/06 11:16:17;;;;;;;0.85;0.60;;;24.60;50.80;;;;;;5050055;28;20189;-60
2021/06/06 11:18:50;;;;;;;0.95;0.65;;;24.60;50.80;;;;;;5050686;28;20032;-60
2021/06/06 11:21:28;;;;;;;0.52;0.52;;;24.60;50.70;;;;;;5057491;28;20012;-61
2021/06/06 11:23:58;;;;;;;0.50;0.50;;;24.60;50.70;;;;;;5058013;28;20036;-61
2021/06/06 11:26:32;;;;;;;0.80;0.68;;;24.60;50.70;;;;;;5057254;28;20024;-62
2021/06/06 11:29:13;;;;;;;0.70;0.50;;;24.60;50.70;;;;;;5057314;28;20785;-62
2021/06/06 11:32:02;;;;;;;0.85;0.70;;;24.60;50.70;;;;;;5052868;28;20176;-62
2021/06/06 11:34:36;;;;;;;0.98;0.70;;;24.60;50.60;;;;;;5038476;28;20072;-62
2021/06/06 11:37:04;;;;;;;0.77;0.60;;;24.60;50.60;;;;;;5045853;28;20033;-62
2021/06/06 11:39:30;;;;;;;0.68;0.60;;;24.60;50.60;;;;;;5055387;28;20454;-61
2021/06/06 11:41:59;;;;;;;0.68;0.60;;;24.60;50.50;;;;;;5051613;28;20021;-62
2021/06/06 11:44:30;;;;;;;0.68;0.57;;;24.60;50.50;;;;;;5051814;28;20096;-62
2021/06/06 11:47:14;;;;;;;0.95;0.68;;;24.60;50.50;;;;;;5054535;28;20021;-63
2021/06/06 11:49:57;;;;;;;0.50;0.50;;;24.60;50.50;;;;;;5054544;28;20462;-62
2021/06/06 11:52:52;;;;;;;0.90;0.63;;;24.60;50.50;;;;;;5049547;28;20042;-62
2021/06/06 11:55:24;;;;;;;0.70;0.60;;;24.60;50.60;;;;;;5055917;28;20417;-64
2021/06/06 11:58:14;;;;;;;0.80;0.70;;;24.60;50.70;;;;;;5051058;28;20420;-63
2021/06/06 12:01:12;;;;;;;0.63;0.60;;;24.60;50.70;;;;;;5051670;28;20087;-63
2021/06/06 12:03:41;;;;;;;0.88;0.80;;;24.60;50.80;;;;;;5049263;28;20044;-64
2021/06/06 12:06:08;;;;;;;;;;;24.60;50.70;;;;;;5055759;28;20094;-63
2021/06/06 12:08:36;;;;;;;0.60;0.60;;;24.60;50.70;;;;;;5060221;28;19923;-64
2021/06/06 12:11:06;;;;;;;1.25;0.68;;;24.60;50.70;;;;;;5055035;28;20530;-63
2021/06/06 12:13:41;;;;;;;0.68;0.68;;;24.60;50.70;;;;;;5050065;28;20029;-63
2021/06/06 12:16:13;;;;;;;0.70;0.60;;;24.60;50.70;;;;;;5062533;28;20106;-63
2021/06/06 12:18:44;;;;;;;1.00;0.70;;;24.60;50.80;;;;;;5067133;28;20028;-63
2021/06/06 12:21:22;;;;;;;1.50;0.70;;;24.60;50.70;;;;;;5059466;28;20036;-63
2021/06/06 12:24:03;;;;;;;0.77;0.65;;;24.60;50.80;;;;;;5056543;28;20036;-62
2021/06/06 12:26:33;;;;;;;1.08;0.70;;;24.60;50.80;;;;;;5059114;28;20496;-62
2021/06/06 12:28:59;;;;;;;2.03;0.80;;;24.60;50.90;;;;;;5061396;28;20120;-63
2021/06/06 12:31:30;;;;;;;1.13;0.77;;;24.60;50.90;;;;;;5061789;28;20032;-62
2021/06/06 12:34:08;;;;;;;1.00;0.70;;;24.60;51.00;;;;;;5063685;28;20032;-63
2021/06/06 12:36:37;;;;;;;1.67;0.90;;;24.60;50.90;;;;;;5063171;28;20317;-62
2021/06/06 12:39:07;;;;;;;0.75;0.75;;;24.60;51.10;;;;;;5065881;28;20031;-62
2021/06/06 12:41:37;;;;;;;1.73;0.88;;;24.60;51.00;;;;;;5058830;28;20040;-62
2021/06/06 12:44:06;;;;;;;1.60;0.75;;;24.60;51.00;;;;;;5049069;28;20823;-62
2021/06/06 12:46:48;;;;;;;1.23;0.70;;;24.60;51.10;;;;;;5059637;28;20469;-62
2021/06/06 12:49:14;;;;;;;0.95;0.75;;;24.70;51.50;;;;;;5060439;28;20067;-62
2021/06/06 12:51:48;;;;;;;1.20;0.85;;;24.60;51.30;;;;;;5043346;28;20068;-64
2021/06/06 12:54:26;;;;;;;1.13;0.80;;;24.60;51.30;;;;;;5058335;28;20029;-63
2021/06/06 12:56:53;;;;;;;1.10;0.80;;;24.60;51.30;;;;;;5064256;28;20051;-63
2021/06/06 12:59:23;;;;;;;1.00;0.80;;;24.70;51.40;;;;;;5061901;28;20121;-62
2021/06/06 13:02:01;;;;;;;1.30;0.85;;;24.70;51.50;;;;;;5043382;28;20491;-63
2021/06/06 13:04:27;;;;;;;2.00;1.00;;;24.70;51.80;;;;;;5053111;28;20360;-63
2021/06/06 13:06:55;;;;;;;1.52;0.82;;;24.70;51.50;;;;;;5044538;28;20037;-62
2021/06/06 13:09:23;;;;;;;0.90;0.80;;;24.70;51.50;;;;;;5045762;28;20090;-62